sensor_id;sensor_type;location;lat;lon;timestamp;temperature;humidity
42141;DHT22;27809;51.864;5.646;2023-05-07T00:00:56;13.30;99.90
42141;DHT22;27809;51.864;5.646;2023-05-07T00:03:22;13.30;99.90
42141;DHT22;27809;51.864;5.646;2023-05-07T00:05:47;13.30;99.90
42141;DHT22;27809;51.864;5.646;2023-05-07T00:08:13;13.30;99.90
42141;DHT22;27809;51.864;5.646;2023-05-07T00:10:39;13.30;99.90
42141;DHT22;27809;51.864;5.646;2023-05-07T00:13:04;13.10;99.90
42141;DHT22;27809;51.864;5.646;2023-05-07T00:15:30;13.10;99.90
42141;DHT22;27809;51.864;5.646;2023-05-07T00:17:55;13.20;99.90
42141;DHT22;27809;51.864;5.646;2023-05-07T00:20:21;13.20;99.90
42141;DHT22;27809;51.864;5.646;2023-05-07T00:22:46;13.20;99.90
42141;DHT22;27809;51.864;5.646;2023-05-07T00:25:12;13.10;99.90
42141;DHT22;27809;51.864;5.646;2023-05-07T00:27:37;13.20;99.90
42141;DHT22;27809;51.864;5.646;2023-05-07T00:30:03;13.10;99.90
42141;DHT22;27809;51.864;5.646;2023-05-07T00:32:29;13.00;99.90
42141;DHT22;27809;51.864;5.646;2023-05-07T00:34:54;13.10;99.90
42141;DHT22;27809;51.864;5.646;2023-05-07T00:37:20;13.20;99.90
42141;DHT22;27809;51.864;5.646;2023-05-07T00:39:46;13.10;99.90
42141;DHT22;27809;51.864;5.646;2023-05-07T00:42:11;13.10;99.90
42141;DHT22;27809;51.864;5.646;2023-05-07T00:44:37;13.00;99.90
42141;DHT22;27809;51.864;5.646;2023-05-07T00:47:03;12.90;99.90
42141;DHT22;27809;51.864;5.646;2023-05-07T00:49:39;12.90;99.90
42141;DHT22;27809;51.864;5.646;2023-05-07T00:52:09;12.90;99.90
42141;DHT22;27809;51.864;5.646;2023-05-07T00:54:36;12.90;99.90
42141;DHT22;27809;51.864;5.646;2023-05-07T00:57:03;13.00;99.90
42141;DHT22;27809;51.864;5.646;2023-05-07T00:59:30;12.90;99.90
42141;DHT22;27809;51.864;5.646;2023-05-07T01:01:56;13.00;99.90
42141;DHT22;27809;51.864;5.646;2023-05-07T01:04:22;13.10;99.90
42141;DHT22;27809;51.864;5.646;2023-05-07T01:06:48;13.00;99.90
42141;DHT22;27809;51.864;5.646;2023-05-07T01:09:14;13.10;99.90
42141;DHT22;27809;51.864;5.646;2023-05-07T01:11:40;13.10;99.90
42141;DHT22;27809;51.864;5.646;2023-05-07T01:14:07;13.20;99.90
42141;DHT22;27809;51.864;5.646;2023-05-07T01:16:32;13.20;99.90
42141;DHT22;27809;51.864;5.646;2023-05-07T01:18:58;13.20;99.90
42141;DHT22;27809;51.864;5.646;2023-05-07T01:21:26;13.20;99.90
42141;DHT22;27809;51.864;5.646;2023-05-07T01:23:53;13.20;99.90
42141;DHT22;27809;51.864;5.646;2023-05-07T01:26:18;13.10;99.90
42141;DHT22;27809;51.864;5.646;2023-05-07T01:28:45;13.20;99.90
42141;DHT22;27809;51.864;5.646;2023-05-07T01:31:12;13.20;99.90
42141;DHT22;27809;51.864;5.646;2023-05-07T01:33:40;13.20;99.90
42141;DHT22;27809;51.864;5.646;2023-05-07T01:36:08;13.20;99.90
42141;DHT22;27809;51.864;5.646;2023-05-07T01:38:36;13.30;99.90
42141;DHT22;27809;51.864;5.646;2023-05-07T01:41:02;13.30;99.90
42141;DHT22;27809;51.864;5.646;2023-05-07T01:43:29;13.30;99.90
42141;DHT22;27809;51.864;5.646;2023-05-07T01:45:55;13.30;99.90
42141;DHT22;27809;51.864;5.646;2023-05-07T01:48:22;13.30;99.90
42141;DHT22;27809;51.864;5.646;2023-05-07T01:50:49;13.30;99.90
42141;DHT22;27809;51.864;5.646;2023-05-07T01:53:15;13.30;99.90
42141;DHT22;27809;51.864;5.646;2023-05-07T01:55:41;13.20;99.90
42141;DHT22;27809;51.864;5.646;2023-05-07T01:58:06;13.20;99.90
42141;DHT22;27809;51.864;5.646;2023-05-07T02:00:32;13.30;99.90
42141;DHT22;27809;51.864;5.646;2023-05-07T02:02:58;13.20;99.90
42141;DHT22;27809;51.864;5.646;2023-05-07T02:05:23;13.20;99.90
42141;DHT22;27809;51.864;5.646;2023-05-07T02:07:49;13.20;99.90
42141;DHT22;27809;51.864;5.646;2023-05-07T02:10:15;13.20;99.90
42141;DHT22;27809;51.864;5.646;2023-05-07T02:12:40;13.20;99.90
42141;DHT22;27809;51.864;5.646;2023-05-07T02:15:06;13.20;99.90
42141;DHT22;27809;51.864;5.646;2023-05-07T02:17:32;13.10;99.90
42141;DHT22;27809;51.864;5.646;2023-05-07T02:19:58;13.10;99.90
42141;DHT22;27809;51.864;5.646;2023-05-07T02:22:24;13.10;99.90
42141;DHT22;27809;51.864;5.646;2023-05-07T02:24:49;13.20;99.90
42141;DHT22;27809;51.864;5.646;2023-05-07T02:27:15;13.20;99.90
42141;DHT22;27809;51.864;5.646;2023-05-07T02:29:40;13.10;99.90
42141;DHT22;27809;51.864;5.646;2023-05-07T02:32:06;13.10;99.90
42141;DHT22;27809;51.864;5.646;2023-05-07T02:34:31;13.10;99.90
42141;DHT22;27809;51.864;5.646;2023-05-07T02:36:57;13.00;99.90
42141;DHT22;27809;51.864;5.646;2023-05-07T02:39:22;13.10;99.90
42141;DHT22;27809;51.864;5.646;2023-05-07T02:41:48;13.10;99.90
42141;DHT22;27809;51.864;5.646;2023-05-07T02:44:13;13.10;99.90
42141;DHT22;27809;51.864;5.646;2023-05-07T02:46:39;13.10;99.90
42141;DHT22;27809;51.864;5.646;2023-05-07T02:49:05;13.00;99.90
42141;DHT22;27809;51.864;5.646;2023-05-07T02:51:31;13.10;99.90
42141;DHT22;27809;51.864;5.646;2023-05-07T02:53:56;13.10;99.90
42141;DHT22;27809;51.864;5.646;2023-05-07T02:56:22;13.10;99.90
42141;DHT22;27809;51.864;5.646;2023-05-07T02:58:48;13.00;99.90
42141;DHT22;27809;51.864;5.646;2023-05-07T03:01:13;13.00;99.90
42141;DHT22;27809;51.864;5.646;2023-05-07T03:03:40;13.00;99.90
42141;DHT22;27809;51.864;5.646;2023-05-07T03:06:06;13.00;99.90
42141;DHT22;27809;51.864;5.646;2023-05-07T03:08:32;13.00;99.90
42141;DHT22;27809;51.864;5.646;2023-05-07T03:10:58;13.00;99.90
42141;DHT22;27809;51.864;5.646;2023-05-07T03:13:23;13.00;99.90
42141;DHT22;27809;51.864;5.646;2023-05-07T03:15:49;13.00;99.90
42141;DHT22;27809;51.864;5.646;2023-05-07T03:18:14;13.10;99.90
42141;DHT22;27809;51.864;5.646;2023-05-07T03:20:40;13.20;99.90
42141;DHT22;27809;51.864;5.646;2023-05-07T03:23:05;13.20;99.90
42141;DHT22;27809;51.864;5.646;2023-05-07T03:25:32;13.20;99.90
42141;DHT22;27809;51.864;5.646;2023-05-07T03:27:58;13.30;99.90
42141;DHT22;27809;51.864;5.646;2023-05-07T03:30:24;13.40;99.90
42141;DHT22;27809;51.864;5.646;2023-05-07T03:32:49;13.40;99.90
42141;DHT22;27809;51.864;5.646;2023-05-07T03:35:15;13.50;99.90
42141;DHT22;27809;51.864;5.646;2023-05-07T03:37:41;13.50;99.90
42141;DHT22;27809;51.864;5.646;2023-05-07T03:40:07;13.50;99.90
42141;DHT22;27809;51.864;5.646;2023-05-07T03:42:33;13.50;99.90
42141;DHT22;27809;51.864;5.646;2023-05-07T03:44:59;13.50;99.90
42141;DHT22;27809;51.864;5.646;2023-05-07T03:47:24;13.50;99.90
42141;DHT22;27809;51.864;5.646;2023-05-07T03:49:50;13.60;99.90
42141;DHT22;27809;51.864;5.646;2023-05-07T03:52:18;13.50;99.90
42141;DHT22;27809;51.864;5.646;2023-05-07T03:54:48;13.50;99.90
42141;DHT22;27809;51.864;5.646;2023-05-07T03:57:13;13.60;99.90
42141;DHT22;27809;51.864;5.646;2023-05-07T03:59:39;13.60;99.90
42141;DHT22;27809;51.864;5.646;2023-05-07T04:02:04;13.50;99.90
42141;DHT22;27809;51.864;5.646;2023-05-07T04:04:30;13.60;99.90
42141;DHT22;27809;51.864;5.646;2023-05-07T04:06:58;13.60;99.90
42141;DHT22;27809;51.864;5.646;2023-05-07T04:09:24;13.70;99.90
42141;DHT22;27809;51.864;5.646;2023-05-07T04:11:50;13.60;99.90
42141;DHT22;27809;51.864;5.646;2023-05-07T04:14:16;13.70;99.90
42141;DHT22;27809;51.864;5.646;2023-05-07T04:16:41;13.70;99.90
42141;DHT22;27809;51.864;5.646;2023-05-07T04:19:07;13.60;99.90
42141;DHT22;27809;51.864;5.646;2023-05-07T04:21:32;13.60;99.90
42141;DHT22;27809;51.864;5.646;2023-05-07T04:23:58;13.60;99.90
42141;DHT22;27809;51.864;5.646;2023-05-07T04:26:23;13.60;99.90
42141;DHT22;27809;51.864;5.646;2023-05-07T04:28:49;13.70;99.90
42141;DHT22;27809;51.864;5.646;2023-05-07T04:31:15;13.70;99.90
42141;DHT22;27809;51.864;5.646;2023-05-07T04:33:41;13.70;99.90
42141;DHT22;27809;51.864;5.646;2023-05-07T04:36:07;13.60;99.90
42141;DHT22;27809;51.864;5.646;2023-05-07T04:38:33;13.70;99.90
42141;DHT22;27809;51.864;5.646;2023-05-07T04:41:05;13.70;99.90
42141;DHT22;27809;51.864;5.646;2023-05-07T04:43:31;13.70;99.90
42141;DHT22;27809;51.864;5.646;2023-05-07T04:45:56;13.70;99.90
42141;DHT22;27809;51.864;5.646;2023-05-07T04:48:22;13.80;99.90
42141;DHT22;27809;51.864;5.646;2023-05-07T04:50:48;13.80;99.90
42141;DHT22;27809;51.864;5.646;2023-05-07T04:53:14;13.80;99.90
42141;DHT22;27809;51.864;5.646;2023-05-07T04:55:39;13.80;99.90
42141;DHT22;27809;51.864;5.646;2023-05-07T04:58:05;13.90;99.90
42141;DHT22;27809;51.864;5.646;2023-05-07T05:00:31;13.80;99.90
42141;DHT22;27809;51.864;5.646;2023-05-07T05:02:56;13.90;99.90
42141;DHT22;27809;51.864;5.646;2023-05-07T05:05:22;13.80;99.90
42141;DHT22;27809;51.864;5.646;2023-05-07T05:07:48;13.90;99.90
42141;DHT22;27809;51.864;5.646;2023-05-07T05:10:13;14.00;99.90
42141;DHT22;27809;51.864;5.646;2023-05-07T05:12:39;14.00;99.90
42141;DHT22;27809;51.864;5.646;2023-05-07T05:15:05;14.10;99.90
42141;DHT22;27809;51.864;5.646;2023-05-07T05:17:31;14.10;99.90
42141;DHT22;27809;51.864;5.646;2023-05-07T05:19:56;14.20;99.90
42141;DHT22;27809;51.864;5.646;2023-05-07T05:22:22;14.20;99.90
42141;DHT22;27809;51.864;5.646;2023-05-07T05:24:47;14.20;99.90
42141;DHT22;27809;51.864;5.646;2023-05-07T05:27:13;14.20;99.90
42141;DHT22;27809;51.864;5.646;2023-05-07T05:29:38;14.20;99.90
42141;DHT22;27809;51.864;5.646;2023-05-07T05:32:04;14.30;99.90
42141;DHT22;27809;51.864;5.646;2023-05-07T05:34:29;14.30;99.90
42141;DHT22;27809;51.864;5.646;2023-05-07T05:36:55;14.30;99.90
42141;DHT22;27809;51.864;5.646;2023-05-07T05:39:20;14.40;99.90
42141;DHT22;27809;51.864;5.646;2023-05-07T05:41:47;14.40;99.90
42141;DHT22;27809;51.864;5.646;2023-05-07T05:44:13;14.30;99.90
42141;DHT22;27809;51.864;5.646;2023-05-07T05:46:38;14.30;99.90
42141;DHT22;27809;51.864;5.646;2023-05-07T05:49:04;14.30;99.90
42141;DHT22;27809;51.864;5.646;2023-05-07T05:51:29;14.30;99.90
42141;DHT22;27809;51.864;5.646;2023-05-07T05:53:55;14.30;99.90
42141;DHT22;27809;51.864;5.646;2023-05-07T05:56:21;14.40;99.90
42141;DHT22;27809;51.864;5.646;2023-05-07T05:58:46;14.40;99.90
42141;DHT22;27809;51.864;5.646;2023-05-07T06:01:12;14.40;99.90
42141;DHT22;27809;51.864;5.646;2023-05-07T06:03:38;14.80;99.90
42141;DHT22;27809;51.864;5.646;2023-05-07T06:06:03;15.30;99.90
42141;DHT22;27809;51.864;5.646;2023-05-07T06:08:29;14.90;99.90
42141;DHT22;27809;51.864;5.646;2023-05-07T06:10:55;14.80;99.90
42141;DHT22;27809;51.864;5.646;2023-05-07T06:13:21;14.70;99.90
42141;DHT22;27809;51.864;5.646;2023-05-07T06:15:46;14.60;99.90
42141;DHT22;27809;51.864;5.646;2023-05-07T06:18:12;14.50;99.90
42141;DHT22;27809;51.864;5.646;2023-05-07T06:20:37;14.50;99.90
42141;DHT22;27809;51.864;5.646;2023-05-07T06:23:03;14.50;99.90
42141;DHT22;27809;51.864;5.646;2023-05-07T06:25:28;14.50;99.90
42141;DHT22;27809;51.864;5.646;2023-05-07T06:27:54;14.60;99.90
42141;DHT22;27809;51.864;5.646;2023-05-07T06:30:19;14.60;99.90
42141;DHT22;27809;51.864;5.646;2023-05-07T06:32:45;14.60;99.90
42141;DHT22;27809;51.864;5.646;2023-05-07T06:35:10;14.50;99.90
42141;DHT22;27809;51.864;5.646;2023-05-07T06:37:36;14.50;99.90
42141;DHT22;27809;51.864;5.646;2023-05-07T06:40:04;14.70;99.90
42141;DHT22;27809;51.864;5.646;2023-05-07T06:42:30;14.80;99.90
42141;DHT22;27809;51.864;5.646;2023-05-07T06:44:56;14.80;99.90
42141;DHT22;27809;51.864;5.646;2023-05-07T06:47:21;14.80;99.90
42141;DHT22;27809;51.864;5.646;2023-05-07T06:49:47;14.90;99.90
42141;DHT22;27809;51.864;5.646;2023-05-07T06:52:12;14.90;99.90
42141;DHT22;27809;51.864;5.646;2023-05-07T06:54:38;15.00;99.90
42141;DHT22;27809;51.864;5.646;2023-05-07T06:57:03;15.00;99.90
42141;DHT22;27809;51.864;5.646;2023-05-07T06:59:29;14.90;99.90
42141;DHT22;27809;51.864;5.646;2023-05-07T07:01:54;14.90;99.90
42141;DHT22;27809;51.864;5.646;2023-05-07T07:04:20;15.00;99.90
42141;DHT22;27809;51.864;5.646;2023-05-07T07:06:48;15.10;99.90
42141;DHT22;27809;51.864;5.646;2023-05-07T07:09:13;14.90;99.90
42141;DHT22;27809;51.864;5.646;2023-05-07T07:11:39;15.00;99.90
42141;DHT22;27809;51.864;5.646;2023-05-07T07:14:05;15.10;99.90
42141;DHT22;27809;51.864;5.646;2023-05-07T07:16:30;15.20;99.90
42141;DHT22;27809;51.864;5.646;2023-05-07T07:18:56;15.10;99.90
42141;DHT22;27809;51.864;5.646;2023-05-07T07:21:21;15.30;99.90
42141;DHT22;27809;51.864;5.646;2023-05-07T07:23:47;15.30;99.90
42141;DHT22;27809;51.864;5.646;2023-05-07T07:26:12;15.40;99.90
42141;DHT22;27809;51.864;5.646;2023-05-07T07:28:45;15.30;99.90
42141;DHT22;27809;51.864;5.646;2023-05-07T07:31:11;15.40;99.90
42141;DHT22;27809;51.864;5.646;2023-05-07T07:33:36;15.40;99.90
42141;DHT22;27809;51.864;5.646;2023-05-07T07:36:02;15.40;99.90
42141;DHT22;27809;51.864;5.646;2023-05-07T07:38:28;15.40;99.90
42141;DHT22;27809;51.864;5.646;2023-05-07T07:40:53;15.50;99.90
42141;DHT22;27809;51.864;5.646;2023-05-07T07:43:19;15.60;99.90
42141;DHT22;27809;51.864;5.646;2023-05-07T07:45:44;15.70;99.90
42141;DHT22;27809;51.864;5.646;2023-05-07T07:48:11;15.70;99.90
42141;DHT22;27809;51.864;5.646;2023-05-07T07:50:36;15.80;99.90
42141;DHT22;27809;51.864;5.646;2023-05-07T07:53:02;15.80;99.90
42141;DHT22;27809;51.864;5.646;2023-05-07T07:55:27;15.70;99.90
42141;DHT22;27809;51.864;5.646;2023-05-07T07:57:53;15.70;99.90
42141;DHT22;27809;51.864;5.646;2023-05-07T08:00:19;15.70;99.90
42141;DHT22;27809;51.864;5.646;2023-05-07T08:02:45;15.90;99.90
42141;DHT22;27809;51.864;5.646;2023-05-07T08:05:10;16.00;99.90
42141;DHT22;27809;51.864;5.646;2023-05-07T08:07:36;15.90;99.90
42141;DHT22;27809;51.864;5.646;2023-05-07T08:10:01;16.00;99.90
42141;DHT22;27809;51.864;5.646;2023-05-07T08:12:27;16.20;99.90
42141;DHT22;27809;51.864;5.646;2023-05-07T08:14:53;15.90;99.90
42141;DHT22;27809;51.864;5.646;2023-05-07T08:17:18;16.00;99.90
42141;DHT22;27809;51.864;5.646;2023-05-07T08:19:44;16.20;99.90
42141;DHT22;27809;51.864;5.646;2023-05-07T08:22:10;16.30;99.90
42141;DHT22;27809;51.864;5.646;2023-05-07T08:24:36;16.30;99.90
42141;DHT22;27809;51.864;5.646;2023-05-07T08:27:02;16.30;99.90
42141;DHT22;27809;51.864;5.646;2023-05-07T08:29:27;16.50;99.90
42141;DHT22;27809;51.864;5.646;2023-05-07T08:31:53;16.60;99.90
42141;DHT22;27809;51.864;5.646;2023-05-07T08:34:19;16.90;99.90
42141;DHT22;27809;51.864;5.646;2023-05-07T08:36:44;17.10;99.90
42141;DHT22;27809;51.864;5.646;2023-05-07T08:39:12;17.30;99.90
42141;DHT22;27809;51.864;5.646;2023-05-07T08:41:37;17.50;99.90
42141;DHT22;27809;51.864;5.646;2023-05-07T08:44:06;17.40;99.90
42141;DHT22;27809;51.864;5.646;2023-05-07T08:46:36;17.60;99.90
42141;DHT22;27809;51.864;5.646;2023-05-07T08:49:02;17.30;99.90
42141;DHT22;27809;51.864;5.646;2023-05-07T08:51:28;17.50;99.90
42141;DHT22;27809;51.864;5.646;2023-05-07T08:53:53;17.70;99.90
42141;DHT22;27809;51.864;5.646;2023-05-07T08:56:19;18.00;99.90
42141;DHT22;27809;51.864;5.646;2023-05-07T08:58:46;18.20;99.90
42141;DHT22;27809;51.864;5.646;2023-05-07T09:01:15;18.20;99.90
42141;DHT22;27809;51.864;5.646;2023-05-07T09:03:44;18.40;99.90
42141;DHT22;27809;51.864;5.646;2023-05-07T09:06:10;18.90;99.90
42141;DHT22;27809;51.864;5.646;2023-05-07T09:08:36;20.10;82.90
42141;DHT22;27809;51.864;5.646;2023-05-07T09:11:02;20.30;59.00
42141;DHT22;27809;51.864;5.646;2023-05-07T09:13:29;20.20;60.70
42141;DHT22;27809;51.864;5.646;2023-05-07T09:15:55;19.80;74.30
42141;DHT22;27809;51.864;5.646;2023-05-07T09:18:20;19.40;94.70
42141;DHT22;27809;51.864;5.646;2023-05-07T09:20:46;19.60;90.80
42141;DHT22;27809;51.864;5.646;2023-05-07T09:23:11;21.00;40.50
42141;DHT22;27809;51.864;5.646;2023-05-07T09:25:37;21.60;28.40
42141;DHT22;27809;51.864;5.646;2023-05-07T09:28:04;22.00;20.00
42141;DHT22;27809;51.864;5.646;2023-05-07T09:30:31;22.00;16.40
42141;DHT22;27809;51.864;5.646;2023-05-07T09:33:02;22.00;16.30
42141;DHT22;27809;51.864;5.646;2023-05-07T09:35:28;21.80;20.10
42141;DHT22;27809;51.864;5.646;2023-05-07T09:37:55;21.70;20.80
42141;DHT22;27809;51.864;5.646;2023-05-07T09:40:26;21.80;18.70
42141;DHT22;27809;51.864;5.646;2023-05-07T09:42:53;21.70;20.00
42141;DHT22;27809;51.864;5.646;2023-05-07T09:45:28;21.90;15.60
42141;DHT22;27809;51.864;5.646;2023-05-07T09:47:56;22.00;16.50
42141;DHT22;27809;51.864;5.646;2023-05-07T09:50:26;21.80;18.20
42141;DHT22;27809;51.864;5.646;2023-05-07T09:52:54;21.90;15.70
42141;DHT22;27809;51.864;5.646;2023-05-07T09:55:21;20.60;36.40
42141;DHT22;27809;51.864;5.646;2023-05-07T09:57:49;19.80;51.50
42141;DHT22;27809;51.864;5.646;2023-05-07T10:00:15;20.00;64.40
42141;DHT22;27809;51.864;5.646;2023-05-07T10:02:43;19.90;63.20
42141;DHT22;27809;51.864;5.646;2023-05-07T10:05:14;20.00;62.80
42141;DHT22;27809;51.864;5.646;2023-05-07T10:07:40;20.10;63.20
42141;DHT22;27809;51.864;5.646;2023-05-07T10:10:07;20.30;55.80
42141;DHT22;27809;51.864;5.646;2023-05-07T10:12:33;20.30;57.60
42141;DHT22;27809;51.864;5.646;2023-05-07T10:15:09;20.70;43.40
42141;DHT22;27809;51.864;5.646;2023-05-07T10:17:36;21.90;21.90
42141;DHT22;27809;51.864;5.646;2023-05-07T10:20:02;22.30;19.80
42141;DHT22;27809;51.864;5.646;2023-05-07T10:22:34;22.40;21.90
42141;DHT22;27809;51.864;5.646;2023-05-07T10:25:02;22.00;28.00
42141;DHT22;27809;51.864;5.646;2023-05-07T10:27:29;22.40;19.90
42141;DHT22;27809;51.864;5.646;2023-05-07T10:32:35;22.60;15.20
42141;DHT22;27809;51.864;5.646;2023-05-07T10:35:04;22.70;13.60
42141;DHT22;27809;51.864;5.646;2023-05-07T10:37:32;22.80;12.80
42141;DHT22;27809;51.864;5.646;2023-05-07T10:39:58;23.10;7.80
42141;DHT22;27809;51.864;5.646;2023-05-07T10:42:24;22.90;11.10
42141;DHT22;27809;51.864;5.646;2023-05-07T10:44:49;23.00;9.90
42141;DHT22;27809;51.864;5.646;2023-05-07T10:47:16;22.90;10.10
42141;DHT22;27809;51.864;5.646;2023-05-07T10:52:17;22.90;8.60
42141;DHT22;27809;51.864;5.646;2023-05-07T10:54:44;22.90;9.80
42141;DHT22;27809;51.864;5.646;2023-05-07T10:57:35;22.80;8.80
42141;DHT22;27809;51.864;5.646;2023-05-07T11:00:02;22.80;9.40
42141;DHT22;27809;51.864;5.646;2023-05-07T11:05:29;22.80;8.70
42141;DHT22;27809;51.864;5.646;2023-05-07T11:07:57;22.80;9.00
42141;DHT22;27809;51.864;5.646;2023-05-07T11:10:23;22.80;7.40
42141;DHT22;27809;51.864;5.646;2023-05-07T11:12:50;22.90;7.40
42141;DHT22;27809;51.864;5.646;2023-05-07T11:15:37;22.80;7.10
42141;DHT22;27809;51.864;5.646;2023-05-07T11:18:03;22.80;6.80
42141;DHT22;27809;51.864;5.646;2023-05-07T11:20:45;22.80;7.90
42141;DHT22;27809;51.864;5.646;2023-05-07T11:26:03;22.60;10.10
42141;DHT22;27809;51.864;5.646;2023-05-07T11:28:37;22.70;8.60
42141;DHT22;27809;51.864;5.646;2023-05-07T11:31:03;22.50;11.00
42141;DHT22;27809;51.864;5.646;2023-05-07T11:33:30;22.50;11.90
42141;DHT22;27809;51.864;5.646;2023-05-07T11:35:56;22.60;10.10
42141;DHT22;27809;51.864;5.646;2023-05-07T11:38:22;22.50;11.00
42141;DHT22;27809;51.864;5.646;2023-05-07T11:40:56;22.50;12.10
42141;DHT22;27809;51.864;5.646;2023-05-07T11:43:22;22.50;12.50
42141;DHT22;27809;51.864;5.646;2023-05-07T11:45:48;22.50;13.20
42141;DHT22;27809;51.864;5.646;2023-05-07T11:48:14;22.50;14.60
42141;DHT22;27809;51.864;5.646;2023-05-07T11:51:00;22.60;15.30
42141;DHT22;27809;51.864;5.646;2023-05-07T11:53:26;22.60;15.60
42141;DHT22;27809;51.864;5.646;2023-05-07T11:55:53;22.60;15.40
42141;DHT22;27809;51.864;5.646;2023-05-07T11:58:23;22.60;15.50
42141;DHT22;27809;51.864;5.646;2023-05-07T12:00:50;22.60;16.90
42141;DHT22;27809;51.864;5.646;2023-05-07T12:03:15;22.70;14.40
42141;DHT22;27809;51.864;5.646;2023-05-07T12:05:41;22.80;16.10
42141;DHT22;27809;51.864;5.646;2023-05-07T12:08:07;22.80;16.40
42141;DHT22;27809;51.864;5.646;2023-05-07T12:10:33;23.00;14.80
42141;DHT22;27809;51.864;5.646;2023-05-07T12:12:58;23.00;14.60
42141;DHT22;27809;51.864;5.646;2023-05-07T12:15:24;22.90;17.30
42141;DHT22;27809;51.864;5.646;2023-05-07T12:17:50;22.80;18.30
42141;DHT22;27809;51.864;5.646;2023-05-07T12:20:16;22.80;18.30
42141;DHT22;27809;51.864;5.646;2023-05-07T12:22:42;22.80;18.70
42141;DHT22;27809;51.864;5.646;2023-05-07T12:25:08;22.00;26.00
42141;DHT22;27809;51.864;5.646;2023-05-07T12:27:37;21.60;33.70
42141;DHT22;27809;51.864;5.646;2023-05-07T12:30:03;21.90;38.30
42141;DHT22;27809;51.864;5.646;2023-05-07T12:32:29;21.70;43.70
42141;DHT22;27809;51.864;5.646;2023-05-07T12:34:54;21.10;48.60
42141;DHT22;27809;51.864;5.646;2023-05-07T12:37:26;20.70;58.10
42141;DHT22;27809;51.864;5.646;2023-05-07T12:40:05;20.40;64.80
42141;DHT22;27809;51.864;5.646;2023-05-07T12:42:39;20.50;65.80
42141;DHT22;27809;51.864;5.646;2023-05-07T12:45:12;20.40;62.80
42141;DHT22;27809;51.864;5.646;2023-05-07T12:47:38;20.40;62.10
42141;DHT22;27809;51.864;5.646;2023-05-07T12:50:07;20.30;72.00
42141;DHT22;27809;51.864;5.646;2023-05-07T12:52:33;20.30;79.50
42141;DHT22;27809;51.864;5.646;2023-05-07T12:55:05;20.40;86.10
42141;DHT22;27809;51.864;5.646;2023-05-07T12:57:43;20.20;76.90
42141;DHT22;27809;51.864;5.646;2023-05-07T13:00:09;20.20;75.90
42141;DHT22;27809;51.864;5.646;2023-05-07T13:02:39;20.30;90.80
42141;DHT22;27809;51.864;5.646;2023-05-07T13:05:05;20.40;80.10
42141;DHT22;27809;51.864;5.646;2023-05-07T13:07:31;20.30;84.40
42141;DHT22;27809;51.864;5.646;2023-05-07T13:09:57;20.60;90.90
42141;DHT22;27809;51.864;5.646;2023-05-07T13:12:22;20.50;87.00
42141;DHT22;27809;51.864;5.646;2023-05-07T13:14:48;20.40;83.30
42141;DHT22;27809;51.864;5.646;2023-05-07T13:17:13;20.20;91.60
42141;DHT22;27809;51.864;5.646;2023-05-07T13:19:39;20.10;87.50
42141;DHT22;27809;51.864;5.646;2023-05-07T13:22:05;20.00;90.00
42141;DHT22;27809;51.864;5.646;2023-05-07T13:24:31;20.10;94.60
42141;DHT22;27809;51.864;5.646;2023-05-07T13:26:56;20.20;94.80
42141;DHT22;27809;51.864;5.646;2023-05-07T13:29:22;20.30;94.40
42141;DHT22;27809;51.864;5.646;2023-05-07T13:31:54;20.30;94.40
42141;DHT22;27809;51.864;5.646;2023-05-07T13:34:20;20.40;91.50
42141;DHT22;27809;51.864;5.646;2023-05-07T13:36:45;20.50;89.20
42141;DHT22;27809;51.864;5.646;2023-05-07T13:39:11;20.50;86.00
42141;DHT22;27809;51.864;5.646;2023-05-07T13:41:36;20.50;90.40
42141;DHT22;27809;51.864;5.646;2023-05-07T13:44:02;20.50;92.60
42141;DHT22;27809;51.864;5.646;2023-05-07T13:46:27;20.50;91.60
42141;DHT22;27809;51.864;5.646;2023-05-07T13:48:53;20.40;67.80
42141;DHT22;27809;51.864;5.646;2023-05-07T13:51:18;20.70;78.90
42141;DHT22;27809;51.864;5.646;2023-05-07T13:53:44;20.80;85.90
42141;DHT22;27809;51.864;5.646;2023-05-07T13:56:09;20.90;73.90
42141;DHT22;27809;51.864;5.646;2023-05-07T13:58:36;20.90;74.90
42141;DHT22;27809;51.864;5.646;2023-05-07T14:01:01;20.90;66.60
42141;DHT22;27809;51.864;5.646;2023-05-07T14:03:27;21.00;68.10
42141;DHT22;27809;51.864;5.646;2023-05-07T14:05:52;21.00;71.50
42141;DHT22;27809;51.864;5.646;2023-05-07T14:08:18;21.30;77.10
42141;DHT22;27809;51.864;5.646;2023-05-07T14:10:45;21.30;70.50
42141;DHT22;27809;51.864;5.646;2023-05-07T14:13:11;21.40;68.80
42141;DHT22;27809;51.864;5.646;2023-05-07T14:15:37;21.60;71.40
42141;DHT22;27809;51.864;5.646;2023-05-07T14:18:02;21.80;58.70
42141;DHT22;27809;51.864;5.646;2023-05-07T14:20:28;22.10;46.00
42141;DHT22;27809;51.864;5.646;2023-05-07T14:22:55;22.00;43.30
42141;DHT22;27809;51.864;5.646;2023-05-07T14:25:21;22.40;50.40
42141;DHT22;27809;51.864;5.646;2023-05-07T14:27:46;22.50;44.50
42141;DHT22;27809;51.864;5.646;2023-05-07T14:30:12;22.60;30.90
42141;DHT22;27809;51.864;5.646;2023-05-07T14:32:38;22.70;43.10
42141;DHT22;27809;51.864;5.646;2023-05-07T14:35:04;22.50;41.70
42141;DHT22;27809;51.864;5.646;2023-05-07T14:37:29;22.10;30.00
42141;DHT22;27809;51.864;5.646;2023-05-07T14:39:55;21.80;38.60
42141;DHT22;27809;51.864;5.646;2023-05-07T14:42:20;21.20;23.60
42141;DHT22;27809;51.864;5.646;2023-05-07T14:44:46;20.30;26.40
42141;DHT22;27809;51.864;5.646;2023-05-07T14:47:13;19.70;39.70
42141;DHT22;27809;51.864;5.646;2023-05-07T14:49:40;19.40;38.60
42141;DHT22;27809;51.864;5.646;2023-05-07T14:52:06;19.10;50.50
42141;DHT22;27809;51.864;5.646;2023-05-07T14:54:34;18.90;58.10
42141;DHT22;27809;51.864;5.646;2023-05-07T14:57:01;18.50;59.10
42141;DHT22;27809;51.864;5.646;2023-05-07T14:59:26;18.30;55.70
42141;DHT22;27809;51.864;5.646;2023-05-07T15:01:52;17.90;54.10
42141;DHT22;27809;51.864;5.646;2023-05-07T15:04:17;17.60;68.80
42141;DHT22;27809;51.864;5.646;2023-05-07T15:06:43;17.60;67.30
42141;DHT22;27809;51.864;5.646;2023-05-07T15:09:09;17.40;76.30
42141;DHT22;27809;51.864;5.646;2023-05-07T15:11:34;17.50;90.60
42141;DHT22;27809;51.864;5.646;2023-05-07T15:14:00;17.20;94.30
42141;DHT22;27809;51.864;5.646;2023-05-07T15:16:26;17.00;99.90
42141;DHT22;27809;51.864;5.646;2023-05-07T15:18:51;16.50;99.90
42141;DHT22;27809;51.864;5.646;2023-05-07T15:21:17;16.20;99.90
42141;DHT22;27809;51.864;5.646;2023-05-07T15:23:42;16.00;99.90
42141;DHT22;27809;51.864;5.646;2023-05-07T15:26:09;16.00;99.90
42141;DHT22;27809;51.864;5.646;2023-05-07T15:28:35;15.80;99.90
42141;DHT22;27809;51.864;5.646;2023-05-07T15:31:00;15.90;99.90
42141;DHT22;27809;51.864;5.646;2023-05-07T15:33:26;15.90;99.90
42141;DHT22;27809;51.864;5.646;2023-05-07T15:35:52;15.80;99.90
42141;DHT22;27809;51.864;5.646;2023-05-07T15:38:17;15.70;99.90